Time;durP1;ratioP1;P1;durP2;ratioP2;P2;SDS_P1;SDS_P2;PMS_P1;PMS_P2;Temp;Humidity;BMP_temperature;BMP_pressure;BME280_temperature;BME280_humidity;BME280_pressure;Samples;Min_cycle;Max_cycle;Signal;HPM_P1;HPM_P2
2023/06/24 00:01:38;;;;;;;10.23;6.55;;;20.60;86.90;;;;;;4978887;28;20092;-92
2023/06/24 00:04:04;;;;;;;11.13;6.40;;;20.50;87.00;;;;;;4995729;28;20505;-92
2023/06/24 00:06:29;;;;;;;9.52;6.68;;;20.50;87.20;;;;;;4995388;28;20046;-93
2023/06/24 00:09:00;;;;;;;9.73;6.53;;;20.50;87.40;;;;;;4995416;28;20030;-93
2023/06/24 00:11:28;;;;;;;9.10;6.40;;;20.40;87.60;;;;;;4995427;28;20046;-92
2023/06/24 00:13:54;;;;;;;12.43;6.35;;;20.40;87.70;;;;;;4995682;28;20019;-92
2023/06/24 00:16:26;;;;;;;12.52;7.43;;;20.40;87.80;;;;;;4996102;28;20034;-92
2023/06/24 00:18:52;;;;;;;8.80;6.38;;;20.30;87.90;;;;;;4997772;28;20048;-90
2023/06/24 00:21:19;;;;;;;9.35;6.85;;;20.30;88.60;;;;;;4982638;28;20026;-92
2023/06/24 00:23:45;;;;;;;9.75;6.80;;;20.30;88.20;;;;;;5000178;28;20036;-93
2023/06/24 00:26:12;;;;;;;9.45;6.82;;;20.30;88.50;;;;;;4999500;28;20120;-90
2023/06/24 00:28:38;;;;;;;9.35;6.40;;;20.30;88.80;;;;;;4982773;28;20042;-93
2023/06/24 00:31:04;;;;;;;9.30;6.32;;;20.20;89.10;;;;;;4999469;28;20050;-92
2023/06/24 00:33:29;;;;;;;9.48;6.95;;;20.20;89.30;;;;;;4983849;28;20033;-93
2023/06/24 00:35:56;;;;;;;10.23;7.57;;;20.20;89.50;;;;;;4999096;28;20035;-92
2023/06/24 00:38:22;;;;;;;9.75;6.90;;;20.20;89.80;;;;;;4999098;28;20038;-89
2023/06/24 00:40:48;;;;;;;9.98;7.25;;;20.20;90.00;;;;;;4999259;28;20031;-93
2023/06/24 00:43:14;;;;;;;10.25;7.20;;;20.10;90.10;;;;;;4983149;28;20023;-92
2023/06/24 00:45:40;;;;;;;9.82;7.25;;;20.20;90.20;;;;;;4999156;28;20038;-93
2023/06/24 00:48:06;;;;;;;9.82;7.03;;;20.20;90.40;;;;;;4999481;28;20086;-92
2023/06/24 00:50:32;;;;;;;10.10;7.03;;;20.20;90.40;;;;;;4998449;28;20072;-91
2023/06/24 00:52:57;;;;;;;8.50;6.30;;;20.10;90.50;;;;;;4999344;28;20038;-91
2023/06/24 00:55:23;;;;;;;9.98;6.93;;;20.10;90.60;;;;;;4982276;28;20030;-91
2023/06/24 00:57:52;;;;;;;9.68;6.75;;;20.10;90.70;;;;;;4998613;28;20018;-91
2023/06/24 01:00:20;;;;;;;10.82;7.25;;;20.10;90.80;;;;;;4998783;28;20041;-91
2023/06/24 01:02:50;;;;;;;9.50;6.65;;;20.00;90.90;;;;;;4998777;28;20117;-91
2023/06/24 01:05:16;;;;;;;10.88;6.97;;;20.00;91.00;;;;;;4981374;28;20065;-92
2023/06/24 01:07:42;;;;;;;8.77;6.45;;;19.90;91.10;;;;;;4981890;28;20061;-91
2023/06/24 01:10:09;;;;;;;11.95;6.75;;;20.00;91.20;;;;;;4999460;28;20092;-91
2023/06/24 01:12:38;;;;;;;9.07;6.75;;;19.90;91.30;;;;;;4998413;28;20058;-92
2023/06/24 01:15:06;;;;;;;11.27;7.18;;;19.90;91.50;;;;;;4998371;28;20088;-92
2023/06/24 01:17:47;;;;;;;9.85;7.70;;;19.80;91.50;;;;;;4981937;28;20030;-91
2023/06/24 01:20:31;;;;;;;9.98;6.97;;;19.80;91.70;;;;;;4998179;28;20026;-90
2023/06/24 01:23:14;;;;;;;9.85;7.18;;;19.80;91.80;;;;;;4998684;28;20113;-91
2023/06/24 01:26:24;;;;;;;11.82;7.30;;;19.70;91.90;;;;;;4998643;28;20039;-93
2023/06/24 01:28:56;;;;;;;9.95;7.28;;;19.70;92.10;;;;;;4978801;28;20077;-91
2023/06/24 01:31:48;;;;;;;11.20;9.05;;;19.60;92.30;;;;;;4996554;28;20034;-91
2023/06/24 01:34:29;;;;;;;12.35;9.13;;;19.50;92.20;;;;;;4998104;28;20035;-91
2023/06/24 01:37:11;;;;;;;12.52;9.00;;;19.50;92.30;;;;;;4997870;28;20026;-90
2023/06/24 01:40:00;;;;;;;13.57;9.57;;;19.40;92.50;;;;;;4997858;28;20034;-91
2023/06/24 01:42:29;;;;;;;14.85;10.35;;;19.30;92.50;;;;;;4997097;28;20022;-89
2023/06/24 01:44:56;;;;;;;12.98;9.98;;;19.20;92.50;;;;;;4998692;28;20036;-91
2023/06/24 01:47:26;;;;;;;12.20;9.02;;;19.20;92.60;;;;;;4998930;28;20026;-90
2023/06/24 01:49:54;;;;;;;13.65;9.90;;;19.10;92.70;;;;;;4998636;28;20356;-91
2023/06/24 01:52:23;;;;;;;13.15;9.10;;;19.20;92.90;;;;;;4981539;28;20043;-90
2023/06/24 01:54:50;;;;;;;14.18;10.80;;;19.10;92.90;;;;;;4998180;28;20049;-91
2023/06/24 01:57:17;;;;;;;16.08;10.30;;;19.10;93.00;;;;;;4998687;28;20034;-91
2023/06/24 01:59:45;;;;;;;14.75;10.13;;;19.20;93.20;;;;;;4998396;28;20117;-92
2023/06/24 02:02:12;;;;;;;13.20;10.48;;;19.20;93.30;;;;;;4999166;28;20045;-92
2023/06/24 02:04:39;;;;;;;12.40;9.60;;;19.20;93.40;;;;;;5000615;28;20234;-92
2023/06/24 02:07:05;;;;;;;13.98;10.13;;;19.20;93.60;;;;;;5006621;28;20046;-91
2023/06/24 02:09:33;;;;;;;13.93;10.30;;;19.20;93.70;;;;;;5013803;28;20498;-91
2023/06/24 02:12:01;;;;;;;13.80;10.55;;;19.20;93.80;;;;;;5011765;28;20041;-91
2023/06/24 02:14:28;;;;;;;13.90;10.07;;;19.20;94.00;;;;;;5007433;28;20030;-91
2023/06/24 02:16:57;;;;;;;16.08;10.73;;;19.20;94.10;;;;;;4999122;28;20049;-89
2023/06/24 02:19:29;;;;;;;14.55;9.95;;;19.20;94.20;;;;;;4997389;28;20022;-92
2023/06/24 02:21:57;;;;;;;14.60;10.90;;;19.20;94.30;;;;;;4998157;28;20097;-92
2023/06/24 02:24:24;;;;;;;12.95;9.70;;;19.20;94.30;;;;;;4996904;28;20033;-90
2023/06/24 02:26:51;;;;;;;15.60;9.98;;;19.20;94.40;;;;;;4997948;28;20445;-93
2023/06/24 02:29:18;;;;;;;14.18;11.55;;;19.20;94.60;;;;;;4996533;28;20033;-91
2023/06/24 02:31:43;;;;;;;14.10;11.27;;;19.10;94.70;;;;;;4979764;28;20097;-93
2023/06/24 02:34:09;;;;;;;14.18;11.18;;;19.20;94.80;;;;;;4997301;28;20026;-92
2023/06/24 02:36:35;;;;;;;18.35;11.35;;;19.20;95.00;;;;;;4997165;28;20462;-92
2023/06/24 02:39:01;;;;;;;17.88;11.68;;;19.20;95.10;;;;;;4997208;28;20035;-92
2023/06/24 02:41:27;;;;;;;13.80;10.75;;;19.10;95.10;;;;;;4997929;28;20031;-93
2023/06/24 02:43:52;;;;;;;15.35;11.55;;;19.10;95.10;;;;;;4996813;28;20037;-94
2023/06/24 02:46:20;;;;;;;15.10;10.52;;;19.10;95.10;;;;;;4996845;28;20105;-93
2023/06/24 02:48:48;;;;;;;13.40;10.20;;;19.10;95.20;;;;;;4996449;28;20030;-92
2023/06/24 02:51:14;;;;;;;14.63;10.82;;;19.10;95.20;;;;;;4996743;28;20517;-91
2023/06/24 02:53:41;;;;;;;15.68;11.30;;;19.10;95.20;;;;;;4980133;28;20032;-93
2023/06/24 02:56:08;;;;;;;15.45;10.15;;;19.00;95.30;;;;;;4997582;28;20113;-93
2023/06/24 02:58:38;;;;;;;15.68;10.40;;;19.00;95.40;;;;;;4996831;28;20430;-93
2023/06/24 03:01:06;;;;;;;15.77;12.18;;;19.00;95.40;;;;;;4996763;28;20031;-93
2023/06/24 03:03:33;;;;;;;14.27;11.32;;;19.00;95.50;;;;;;4980785;28;20062;-94
2023/06/24 03:06:02;;;;;;;16.63;11.32;;;19.00;95.50;;;;;;4996542;28;20058;-91
2023/06/24 03:08:28;;;;;;;18.15;10.52;;;19.00;95.60;;;;;;4980102;28;20019;-93
2023/06/24 03:10:58;;;;;;;14.00;10.95;;;18.90;95.70;;;;;;4980122;28;20046;-91
2023/06/24 03:13:24;;;;;;;18.52;10.77;;;18.90;95.90;;;;;;4995851;28;20030;-91
2023/06/24 03:15:50;;;;;;;15.10;10.52;;;18.80;96.10;;;;;;4996055;28;20459;-93
2023/06/24 03:18:17;;;;;;;15.52;11.55;;;18.80;96.30;;;;;;4996322;28;20037;-91
2023/06/24 03:20:42;;;;;;;15.55;11.23;;;18.80;96.60;;;;;;4996368;28;20034;-90
2023/06/24 03:23:08;;;;;;;17.65;12.25;;;18.70;96.80;;;;;;4995852;28;20109;-90
2023/06/24 03:25:35;;;;;;;15.38;10.77;;;18.70;97.10;;;;;;4997209;28;20034;-90
2023/06/24 03:28:03;;;;;;;17.13;12.07;;;18.70;97.30;;;;;;4995552;28;20547;-90
2023/06/24 03:30:29;;;;;;;13.55;11.90;;;18.70;97.50;;;;;;4996279;28;20125;-89
2023/06/24 03:32:55;;;;;;;15.23;11.35;;;18.70;97.80;;;;;;4996438;28;20027;-92
2023/06/24 03:35:22;;;;;;;18.00;11.75;;;18.70;98.00;;;;;;4995940;28;20036;-91
2023/06/24 03:37:48;;;;;;;14.27;10.70;;;18.70;98.20;;;;;;4979814;28;20030;-91
2023/06/24 03:40:14;;;;;;;14.70;10.77;;;18.70;98.30;;;;;;4997059;28;20022;-92
2023/06/24 03:42:39;;;;;;;12.20;9.73;;;18.70;98.50;;;;;;4996338;28;20042;-92
2023/06/24 03:45:06;;;;;;;15.60;11.05;;;18.70;98.70;;;;;;4995754;28;20180;-92
2023/06/24 03:47:31;;;;;;;14.10;10.13;;;18.60;98.80;;;;;;4996188;28;20026;-89
2023/06/24 03:49:57;;;;;;;13.68;10.55;;;18.60;98.90;;;;;;4979947;28;20168;-91
2023/06/24 03:52:23;;;;;;;13.95;10.15;;;18.60;98.90;;;;;;4979769;28;20106;-90
2023/06/24 03:54:48;;;;;;;13.80;10.77;;;18.60;99.00;;;;;;4983648;28;20041;-90
2023/06/24 03:57:14;;;;;;;15.02;11.52;;;18.60;99.10;;;;;;4982670;28;20045;-90
2023/06/24 03:59:40;;;;;;;15.13;9.75;;;18.60;99.20;;;;;;4983020;28;20375;-92
2023/06/24 04:02:08;;;;;;;13.20;11.15;;;18.60;99.40;;;;;;5000464;28;20034;-92
2023/06/24 04:04:35;;;;;;;14.55;10.38;;;18.60;99.50;;;;;;5001718;28;20066;-92
2023/06/24 04:07:01;;;;;;;12.88;10.38;;;18.50;99.60;;;;;;5001823;28;20065;-92
2023/06/24 04:09:28;;;;;;;15.27;11.27;;;18.60;99.80;;;;;;5003194;28;20030;-93
2023/06/24 04:11:54;;;;;;;16.00;11.02;;;18.50;99.90;;;;;;5001259;28;20129;-93
2023/06/24 04:14:19;;;;;;;16.67;12.10;;;18.60;99.90;;;;;;5002727;28;20116;-93
2023/06/24 04:16:45;;;;;;;18.92;11.63;;;18.60;99.90;;;;;;5002762;28;20030;-93
2023/06/24 04:19:11;;;;;;;16.40;12.38;;;18.60;99.90;;;;;;5002351;28;20030;-93
2023/06/24 04:21:40;;;;;;;16.15;11.00;;;18.60;99.90;;;;;;4986133;28;20026;-92
2023/06/24 04:24:05;;;;;;;18.85;12.45;;;18.60;99.90;;;;;;5000711;28;20042;-92
2023/06/24 04:26:31;;;;;;;16.02;11.95;;;18.60;99.90;;;;;;5000391;28;20023;-92
2023/06/24 04:28:57;;;;;;;17.00;12.30;;;18.60;99.90;;;;;;5001237;28;20041;-93
2023/06/24 04:31:23;;;;;;;17.45;12.32;;;18.60;99.90;;;;;;4999899;28;20057;-93
2023/06/24 04:33:49;;;;;;;14.65;11.63;;;18.60;99.90;;;;;;4982650;28;20027;-92
2023/06/24 04:36:14;;;;;;;16.20;11.73;;;18.60;99.90;;;;;;4999496;28;20033;-92
2023/06/24 04:38:40;;;;;;;16.45;12.00;;;18.60;99.90;;;;;;4997882;28;20034;-91
2023/06/24 04:41:06;;;;;;;16.02;12.30;;;18.70;99.90;;;;;;4982610;28;20038;-93
2023/06/24 04:43:31;;;;;;;16.35;12.18;;;18.70;99.90;;;;;;4999191;28;20035;-92
2023/06/24 04:45:57;;;;;;;17.20;12.30;;;18.70;99.90;;;;;;4999138;28;20038;-92
2023/06/24 04:48:23;;;;;;;16.67;12.43;;;18.70;99.90;;;;;;4982748;28;20554;-92
2023/06/24 04:50:49;;;;;;;17.88;13.75;;;18.80;99.90;;;;;;4982552;28;20026;-91
2023/06/24 04:53:15;;;;;;;16.60;12.40;;;18.80;99.90;;;;;;4982516;28;20038;-92
2023/06/24 04:55:40;;;;;;;17.30;13.23;;;18.80;99.80;;;;;;4998765;28;20030;-90
2023/06/24 04:58:06;;;;;;;17.35;13.23;;;18.80;99.60;;;;;;4982129;28;20030;-88
2023/06/24 05:00:32;;;;;;;17.17;12.02;;;18.80;99.50;;;;;;4981946;28;20026;-90
2023/06/24 05:02:57;;;;;;;16.80;12.05;;;18.90;99.40;;;;;;4999421;28;20030;-90
2023/06/24 05:05:23;;;;;;;16.17;12.60;;;18.90;99.30;;;;;;4998411;28;20125;-93
2023/06/24 05:07:49;;;;;;;15.15;11.65;;;18.90;99.20;;;;;;4998332;28;20045;-91
2023/06/24 05:10:15;;;;;;;16.67;11.48;;;18.90;99.10;;;;;;4998278;28;20030;-91
2023/06/24 05:12:41;;;;;;;16.63;11.10;;;19.00;98.90;;;;;;5003889;28;20034;-91
2023/06/24 05:15:09;;;;;;;14.50;9.82;;;19.00;98.60;;;;;;5017061;28;20066;-92
2023/06/24 05:17:35;;;;;;;14.07;10.60;;;19.00;98.40;;;;;;5012058;28;20035;-90
2023/06/24 05:20:01;;;;;;;15.70;9.80;;;18.90;97.90;;;;;;4985006;28;20031;-91
2023/06/24 05:22:26;;;;;;;14.98;10.82;;;19.00;97.50;;;;;;5017296;28;20466;-88
2023/06/24 05:24:53;;;;;;;13.77;10.20;;;18.90;97.10;;;;;;5016655;28;20037;-89
2023/06/24 05:27:19;;;;;;;13.73;10.15;;;19.00;96.70;;;;;;5017649;28;20076;-92
2023/06/24 05:29:44;;;;;;;13.13;9.45;;;19.00;96.50;;;;;;5018198;28;20045;-91
2023/06/24 05:32:10;;;;;;;12.50;9.13;;;19.00;96.20;;;;;;5002075;28;20046;-92
2023/06/24 05:34:36;;;;;;;14.10;9.05;;;19.00;95.90;;;;;;5001825;28;20030;-92
2023/06/24 05:37:02;;;;;;;17.85;9.55;;;19.00;95.70;;;;;;5019232;28;20018;-92
2023/06/24 05:39:28;;;;;;;12.90;8.45;;;19.00;95.40;;;;;;5021718;28;20026;-92
2023/06/24 05:41:53;;;;;;;13.73;8.65;;;19.00;95.10;;;;;;5022688;28;20022;-92
2023/06/24 05:44:20;;;;;;;12.18;8.02;;;19.10;94.80;;;;;;5033170;28;20021;-92
2023/06/24 05:46:45;;;;;;;12.95;8.70;;;19.10;94.70;;;;;;5036424;28;20026;-93
2023/06/24 05:49:11;;;;;;;11.07;8.20;;;19.10;94.50;;;;;;5034724;28;20041;-92
2023/06/24 05:51:37;;;;;;;13.02;8.60;;;19.10;94.60;;;;;;5033642;28;20474;-88
2023/06/24 05:54:03;;;;;;;12.13;8.40;;;19.10;94.20;;;;;;5035672;28;20010;-91
2023/06/24 05:56:29;;;;;;;12.25;8.85;;;19.10;94.00;;;;;;5036665;28;20013;-91
2023/06/24 05:58:54;;;;;;;14.70;8.38;;;19.20;93.90;;;;;;5028931;28;20033;-91
2023/06/24 06:01:20;;;;;;;14.43;9.38;;;19.30;93.90;;;;;;5006337;28;20023;-90
2023/06/24 06:03:46;;;;;;;13.18;7.50;;;19.30;93.70;;;;;;5010020;28;20034;-92
2023/06/24 06:06:12;;;;;;;16.15;10.50;;;19.30;93.70;;;;;;5017492;28;20632;-88
2023/06/24 06:08:37;;;;;;;14.68;9.63;;;19.30;93.40;;;;;;5015755;28;20395;-88
2023/06/24 06:11:03;;;;;;;18.50;9.63;;;19.30;93.20;;;;;;5000954;28;20034;-91
2023/06/24 06:13:29;;;;;;;16.60;10.60;;;19.30;93.10;;;;;;4995648;28;20042;-89
2023/06/24 06:15:56;;;;;;;15.40;9.70;;;19.30;93.00;;;;;;5011246;28;20046;-91
2023/06/24 06:18:22;;;;;;;16.58;10.32;;;19.40;93.10;;;;;;4996652;28;20053;-92
2023/06/24 06:20:48;;;;;;;16.38;9.85;;;19.40;93.10;;;;;;4996808;28;20084;-89
2023/06/24 06:23:15;;;;;;;14.45;9.27;;;19.40;93.00;;;;;;5013820;28;20026;-90
2023/06/24 06:25:40;;;;;;;12.07;8.20;;;19.50;93.10;;;;;;4997056;28;20082;-90
2023/06/24 06:28:06;;;;;;;15.95;9.65;;;19.50;93.10;;;;;;4997144;28;20030;-90
2023/06/24 06:30:32;;;;;;;13.15;7.57;;;19.50;93.10;;;;;;5012628;28;20030;-90
2023/06/24 06:32:58;;;;;;;14.40;8.57;;;19.50;92.90;;;;;;4996676;28;20030;-90
2023/06/24 06:35:23;;;;;;;12.85;8.90;;;19.60;92.80;;;;;;5012787;28;20035;-91
2023/06/24 06:37:52;;;;;;;14.90;8.75;;;19.60;92.60;;;;;;5011826;28;20030;-92
2023/06/24 06:40:21;;;;;;;14.98;9.50;;;19.60;92.60;;;;;;5012008;28;20026;-91
2023/06/24 06:42:47;;;;;;;13.18;8.50;;;19.70;92.50;;;;;;5011847;28;20030;-90
2023/06/24 06:45:13;;;;;;;13.70;8.60;;;19.70;92.30;;;;;;5011458;28;20117;-89
2023/06/24 06:47:39;;;;;;;13.38;8.98;;;19.80;91.90;;;;;;5011750;28;20065;-89
2023/06/24 06:50:05;;;;;;;14.07;7.07;;;19.80;91.60;;;;;;5012189;28;20359;-89
2023/06/24 06:52:31;;;;;;;11.57;8.07;;;19.90;91.50;;;;;;4996072;28;20030;-90
2023/06/24 06:54:56;;;;;;;12.10;7.55;;;19.90;91.40;;;;;;5011438;28;20125;-91
2023/06/24 06:57:22;;;;;;;13.10;7.75;;;19.90;91.30;;;;;;4977987;28;20030;-90
2023/06/24 06:59:50;;;;;;;12.23;7.93;;;20.00;90.80;;;;;;4996000;28;20058;-90
2023/06/24 07:02:19;;;;;;;12.90;7.57;;;20.00;90.60;;;;;;5001858;28;20109;-90
2023/06/24 07:04:45;;;;;;;10.90;7.40;;;20.00;90.50;;;;;;5013757;28;20033;-91
2023/06/24 07:07:11;;;;;;;11.02;6.65;;;20.10;90.30;;;;;;5014174;28;20387;-90
2023/06/24 07:09:37;;;;;;;10.20;6.05;;;20.10;90.20;;;;;;5014644;28;20621;-91
2023/06/24 07:12:03;;;;;;;12.43;7.40;;;20.10;90.00;;;;;;5016643;28;20077;-89
2023/06/24 07:14:29;;;;;;;10.68;6.80;;;20.20;89.40;;;;;;5000525;28;20030;-91
2023/06/24 07:16:55;;;;;;;9.20;5.85;;;20.20;88.80;;;;;;4992240;28;20041;-90
2023/06/24 07:19:20;;;;;;;10.45;5.78;;;20.30;88.90;;;;;;4997948;28;20046;-91
2023/06/24 07:21:46;;;;;;;8.98;5.18;;;20.30;88.30;;;;;;4978759;28;20037;-91
2023/06/24 07:24:12;;;;;;;8.68;4.75;;;20.30;88.00;;;;;;4995256;28;20038;-87
2023/06/24 07:26:37;;;;;;;10.20;4.63;;;20.40;87.50;;;;;;4995210;28;20034;-91
2023/06/24 07:29:06;;;;;;;7.78;4.55;;;20.50;87.00;;;;;;4978733;28;20026;-90
2023/06/24 07:31:32;;;;;;;9.07;5.10;;;20.50;86.40;;;;;;4995499;28;20034;-89
2023/06/24 07:33:57;;;;;;;12.10;5.82;;;20.50;85.10;;;;;;4978711;28;20038;-90
2023/06/24 07:36:23;;;;;;;7.25;4.35;;;20.60;84.20;;;;;;4978501;28;20081;-89
2023/06/24 07:38:49;;;;;;;8.55;5.03;;;20.60;83.50;;;;;;4994534;28;20070;-91
2023/06/24 07:41:14;;;;;;;9.50;4.88;;;20.70;82.20;;;;;;4994842;28;20042;-89
2023/06/24 07:43:40;;;;;;;7.50;4.72;;;20.60;81.30;;;;;;4994895;28;20022;-91
2023/06/24 07:46:06;;;;;;;7.75;4.70;;;20.70;81.90;;;;;;4994863;28;20491;-91
2023/06/24 07:48:31;;;;;;;8.40;5.25;;;20.80;81.70;;;;;;4993957;28;20034;-91
2023/06/24 07:50:58;;;;;;;9.05;5.10;;;20.80;81.70;;;;;;4994648;28;20105;-91
2023/06/24 07:53:23;;;;;;;7.95;4.85;;;20.90;81.60;;;;;;4979359;28;20031;-90
2023/06/24 07:55:49;;;;;;;8.32;5.20;;;21.00;81.20;;;;;;4978839;28;20037;-90
2023/06/24 07:58:15;;;;;;;7.88;4.43;;;21.00;80.70;;;;;;4996233;28;20043;-92
2023/06/24 08:00:40;;;;;;;6.55;3.80;;;21.00;80.20;;;;;;4962209;28;20034;-91
2023/06/24 08:03:06;;;;;;;6.03;3.85;;;21.10;79.60;;;;;;5008141;28;20068;-89
2023/06/24 08:05:32;;;;;;;8.07;4.63;;;21.10;78.60;;;;;;4996741;28;20034;-89
2023/06/24 08:07:57;;;;;;;8.25;4.28;;;21.20;78.30;;;;;;5014080;28;20382;-89
2023/06/24 08:10:23;;;;;;;10.77;4.20;;;21.20;78.00;;;;;;5013461;28;20026;-93
2023/06/24 08:12:48;;;;;;;5.70;3.05;;;21.30;78.10;;;;;;5014275;28;20030;-90
2023/06/24 08:15:14;;;;;;;7.32;3.38;;;21.30;77.60;;;;;;5013413;28;20033;-91
2023/06/24 08:17:40;;;;;;;5.82;3.30;;;21.30;76.80;;;;;;5013368;28;20474;-91
2023/06/24 08:20:06;;;;;;;7.63;4.10;;;21.40;76.40;;;;;;4997289;28;20528;-88
2023/06/24 08:22:32;;;;;;;6.97;4.47;;;21.50;76.10;;;;;;5014809;28;20060;-90
2023/06/24 08:24:58;;;;;;;9.98;5.68;;;21.50;76.20;;;;;;4997779;28;20022;-89
2023/06/24 08:27:24;;;;;;;8.80;5.25;;;21.60;75.90;;;;;;4997320;28;20045;-86
2023/06/24 08:29:49;;;;;;;7.22;4.18;;;21.60;76.00;;;;;;5010392;28;20034;-82
2023/06/24 08:32:15;;;;;;;7.70;4.50;;;21.70;76.30;;;;;;5000127;28;20030;-81
2023/06/24 08:34:41;;;;;;;7.45;3.95;;;21.80;75.00;;;;;;5003589;28;20030;-82
2023/06/24 08:37:07;;;;;;;8.75;3.63;;;21.80;74.30;;;;;;5000814;28;20096;-82
2023/06/24 08:39:33;;;;;;;7.38;3.78;;;21.90;73.90;;;;;;5005708;28;20022;-82
2023/06/24 08:41:58;;;;;;;6.95;3.88;;;21.90;73.60;;;;;;4988334;28;20029;-81
2023/06/24 08:44:24;;;;;;;6.43;3.83;;;22.00;73.10;;;;;;4981157;28;20030;-83
2023/06/24 08:46:50;;;;;;;6.10;3.97;;;22.00;72.00;;;;;;4995935;28;20035;-81
2023/06/24 08:49:22;;;;;;;8.20;4.55;;;22.20;71.20;;;;;;4995808;28;20054;-81
2023/06/24 08:51:54;;;;;;;9.13;3.85;;;22.20;71.00;;;;;;4995641;28;20030;-80
2023/06/24 08:54:24;;;;;;;6.65;4.13;;;22.30;70.80;;;;;;4996924;28;20034;-80
2023/06/24 08:56:50;;;;;;;7.28;3.83;;;22.30;70.50;;;;;;4995609;28;20022;-81
2023/06/24 08:59:19;;;;;;;6.13;3.50;;;22.40;70.10;;;;;;4979357;28;20089;-81
2023/06/24 09:01:49;;;;;;;8.75;4.45;;;22.40;69.40;;;;;;5003867;28;20121;-80
2023/06/24 09:04:15;;;;;;;8.50;4.38;;;22.50;69.30;;;;;;4997923;28;20030;-80
2023/06/24 09:06:40;;;;;;;5.80;3.35;;;22.60;68.90;;;;;;4995277;28;20058;-81
2023/06/24 09:09:20;;;;;;;6.45;3.70;;;22.80;68.80;;;;;;4996265;28;20061;-81
2023/06/24 09:11:53;;;;;;;7.75;4.10;;;22.90;68.30;;;;;;4994917;28;20065;-80
2023/06/24 09:14:19;;;;;;;7.82;3.90;;;23.10;68.00;;;;;;4995262;28;20026;-82
2023/06/24 09:17:03;;;;;;;6.65;4.13;;;23.30;67.90;;;;;;4978768;28;20394;-81
2023/06/24 09:19:29;;;;;;;7.70;3.83;;;23.50;67.60;;;;;;4995443;28;20482;-81
2023/06/24 09:22:03;;;;;;;6.75;3.95;;;23.70;67.30;;;;;;4995069;28;20030;-82
2023/06/24 09:24:36;;;;;;;4.63;2.42;;;24.00;66.80;;;;;;4995370;28;20027;-81
2023/06/24 09:27:03;;;;;;;7.95;2.55;;;24.20;66.10;;;;;;4995876;28;20038;-81
2023/06/24 09:29:34;;;;;;;6.47;3.40;;;24.40;64.50;;;;;;4996174;28;20031;-81
2023/06/24 09:31:59;;;;;;;7.03;3.53;;;24.60;62.90;;;;;;4995924;28;20109;-81
2023/06/24 09:34:29;;;;;;;6.72;3.03;;;24.70;62.10;;;;;;4996027;28;20039;-83
2023/06/24 09:36:58;;;;;;;5.78;3.13;;;24.80;61.90;;;;;;4995826;28;20018;-81
2023/06/24 09:39:29;;;;;;;6.13;3.58;;;25.00;61.60;;;;;;4996126;28;20081;-81
2023/06/24 09:42:01;;;;;;;6.55;3.25;;;25.10;61.40;;;;;;4995863;28;20061;-82
2023/06/24 09:44:30;;;;;;;5.13;3.33;;;25.20;61.40;;;;;;5000119;28;20471;-82
2023/06/24 09:46:56;;;;;;;5.70;3.03;;;25.30;61.40;;;;;;5003259;28;20168;-83
2023/06/24 09:49:22;;;;;;;7.18;3.90;;;25.30;61.10;;;;;;5016439;28;20066;-81
2023/06/24 09:51:55;;;;;;;6.47;3.38;;;25.40;60.50;;;;;;4996679;28;20469;-82
2023/06/24 09:54:21;;;;;;;5.57;3.30;;;25.30;59.90;;;;;;5015405;28;20026;-82
2023/06/24 09:56:51;;;;;;;6.57;3.80;;;25.30;59.60;;;;;;4998227;28;20045;-82
2023/06/24 09:59:19;;;;;;;7.22;3.53;;;25.30;59.50;;;;;;4997714;28;20120;-82
2023/06/24 10:01:47;;;;;;;8.30;4.18;;;25.20;58.90;;;;;;5014075;28;20080;-82
2023/06/24 10:04:17;;;;;;;5.70;3.58;;;25.20;59.30;;;;;;5015525;28;20069;-82
2023/06/24 10:06:44;;;;;;;7.03;3.72;;;25.20;59.00;;;;;;5013883;28;20092;-82
2023/06/24 10:09:13;;;;;;;7.68;3.75;;;25.20;59.50;;;;;;5009830;28;20395;-80
2023/06/24 10:11:39;;;;;;;6.70;3.22;;;25.10;58.60;;;;;;4986510;28;20034;-82
2023/06/24 10:14:05;;;;;;;6.15;3.53;;;25.10;58.90;;;;;;5019659;28;20033;-82
2023/06/24 10:16:31;;;;;;;7.40;3.40;;;25.10;59.10;;;;;;5014418;28;20041;-81
2023/06/24 10:19:01;;;;;;;9.38;4.13;;;25.10;59.20;;;;;;4997348;28;20026;-82
2023/06/24 10:21:56;;;;;;;5.55;3.35;;;25.20;59.30;;;;;;5015069;28;20026;-82
2023/06/24 10:24:33;;;;;;;5.82;3.35;;;25.20;59.20;;;;;;4995231;28;20076;-81
2023/06/24 10:27:03;;;;;;;5.80;3.42;;;25.20;58.90;;;;;;4995923;28;20026;-81
2023/06/24 10:29:38;;;;;;;6.35;3.45;;;25.30;58.90;;;;;;5014948;28;20033;-81
2023/06/24 10:32:08;;;;;;;4.07;2.38;;;25.30;58.90;;;;;;5013676;28;20037;-81
2023/06/24 10:34:37;;;;;;;4.93;3.05;;;25.40;58.70;;;;;;5014376;28;20030;-81
2023/06/24 10:37:03;;;;;;;6.28;3.22;;;25.60;58.40;;;;;;5014108;28;20112;-82
2023/06/24 10:39:35;;;;;;;5.80;3.50;;;25.80;57.90;;;;;;5013186;28;20026;-82
2023/06/24 10:42:28;;;;;;;6.30;3.17;;;25.90;57.30;;;;;;5014768;28;20374;-82
2023/06/24 10:44:59;;;;;;;7.20;4.20;;;26.10;57.20;;;;;;5034370;28;20025;-82
2023/06/24 10:47:26;;;;;;;7.95;4.38;;;26.30;56.90;;;;;;5028007;28;20478;-83
2023/06/24 10:49:52;;;;;;;7.90;4.40;;;26.60;56.80;;;;;;5012840;28;20056;-84
2023/06/24 10:52:23;;;;;;;6.13;3.75;;;26.90;56.40;;;;;;5015985;28;20064;-82
2023/06/24 10:54:49;;;;;;;5.88;3.33;;;27.20;56.10;;;;;;5021369;28;20030;-89
2023/06/24 10:57:20;;;;;;;6.00;3.20;;;27.40;56.20;;;;;;4997181;28;20026;-88
2023/06/24 10:59:50;;;;;;;5.68;3.75;;;27.40;56.30;;;;;;4995260;28;20066;-88
2023/06/24 11:02:20;;;;;;;5.03;3.08;;;27.50;56.20;;;;;;5013629;28;20026;-90
2023/06/24 11:04:54;;;;;;;5.25;2.85;;;27.50;56.10;;;;;;5014372;28;20394;-88
2023/06/24 11:07:22;;;;;;;6.32;3.70;;;27.60;56.20;;;;;;5015311;28;20049;-89
2023/06/24 11:09:51;;;;;;;6.93;3.67;;;27.70;56.40;;;;;;5014143;28;20034;-90
2023/06/24 11:12:18;;;;;;;6.28;3.28;;;27.80;56.00;;;;;;4997881;28;20034;-89
2023/06/24 11:14:44;;;;;;;5.88;3.22;;;28.00;55.80;;;;;;4998336;28;20076;-91
2023/06/24 11:17:12;;;;;;;6.13;3.10;;;28.20;55.50;;;;;;4998486;28;20652;-92
2023/06/24 11:19:39;;;;;;;4.50;2.97;;;28.40;55.30;;;;;;5014747;28;20037;-89
2023/06/24 11:22:07;;;;;;;6.05;3.28;;;28.50;55.20;;;;;;4998228;28;20125;-89
2023/06/24 11:24:33;;;;;;;6.72;3.20;;;28.70;55.20;;;;;;5013972;28;20029;-89
2023/06/24 11:26:59;;;;;;;4.75;3.03;;;28.90;54.80;;;;;;5015219;28;20501;-88
2023/06/24 11:29:29;;;;;;;5.00;2.50;;;29.00;54.40;;;;;;5015644;28;20042;-89
2023/06/24 11:31:54;;;;;;;4.65;2.63;;;29.20;53.80;;;;;;5015479;28;20049;-88
2023/06/24 11:34:21;;;;;;;3.75;2.35;;;29.40;53.60;;;;;;5014525;28;20034;-89
2023/06/24 11:36:48;;;;;;;6.03;2.97;;;29.60;53.30;;;;;;4997659;28;20026;-89
2023/06/24 11:39:23;;;;;;;6.22;2.53;;;29.80;52.90;;;;;;5014553;28;20033;-88
2023/06/24 11:41:50;;;;;;;6.13;2.33;;;30.10;52.70;;;;;;5015325;28;20030;-88
2023/06/24 11:44:20;;;;;;;4.25;2.80;;;30.20;52.80;;;;;;5016934;28;20116;-89
2023/06/24 11:46:46;;;;;;;4.68;2.67;;;30.40;52.70;;;;;;5000197;28;20546;-89
2023/06/24 11:49:14;;;;;;;4.60;2.80;;;30.60;52.60;;;;;;5032648;28;20029;-90
2023/06/24 11:51:49;;;;;;;4.22;2.70;;;30.90;52.00;;;;;;5037813;28;20576;-89
2023/06/24 11:54:20;;;;;;;4.40;2.47;;;31.00;51.00;;;;;;5040616;28;20030;-89
2023/06/24 11:56:51;;;;;;;5.55;2.50;;;31.30;50.60;;;;;;5054025;28;20025;-86
2023/06/24 11:59:19;;;;;;;4.50;2.22;;;31.40;50.20;;;;;;5012613;28;20121;-89
2023/06/24 12:01:45;;;;;;;4.47;2.83;;;31.60;50.00;;;;;;5028780;28;20046;-89
2023/06/24 12:04:15;;;;;;;5.38;1.98;;;31.80;49.40;;;;;;5027133;28;20037;-87
2023/06/24 12:06:44;;;;;;;3.97;2.35;;;32.00;48.90;;;;;;5010299;28;20050;-89
2023/06/24 12:09:10;;;;;;;5.78;2.20;;;32.20;48.70;;;;;;5016436;28;20552;-89
2023/06/24 12:11:37;;;;;;;4.97;2.50;;;32.30;48.50;;;;;;5015209;28;20104;-89
2023/06/24 12:14:03;;;;;;;3.75;1.73;;;32.50;48.40;;;;;;5017410;28;20037;-88
2023/06/24 12:16:29;;;;;;;5.13;3.22;;;32.70;48.30;;;;;;5014789;28;20121;-85
2023/06/24 12:18:55;;;;;;;5.93;2.58;;;32.90;48.00;;;;;;5014026;28;20034;-89
2023/06/24 12:21:20;;;;;;;4.22;2.42;;;33.10;47.70;;;;;;5000942;28;20030;-89
2023/06/24 12:23:46;;;;;;;4.70;2.30;;;33.40;47.60;;;;;;5017070;28;20038;-88
2023/06/24 12:26:12;;;;;;;3.33;1.88;;;33.50;47.50;;;;;;5018127;28;20408;-87
2023/06/24 12:28:38;;;;;;;4.07;1.70;;;33.70;47.30;;;;;;5016425;28;20025;-88
2023/06/24 12:31:04;;;;;;;3.65;2.15;;;33.80;47.00;;;;;;5016277;28;20046;-89
2023/06/24 12:33:30;;;;;;;4.18;2.38;;;33.90;46.80;;;;;;5017643;28;20030;-89
2023/06/24 12:35:56;;;;;;;3.05;1.75;;;34.10;46.30;;;;;;5017891;28;20043;-89
2023/06/24 12:38:21;;;;;;;3.78;2.22;;;34.30;46.00;;;;;;5016164;28;20382;-88
2023/06/24 12:40:48;;;;;;;3.38;1.90;;;34.50;45.50;;;;;;5016006;28;20040;-86